createdAt,value
2019-01-09T00:00:07.128Z,3.27
2019-01-09T00:02:32.997Z,3.20
2019-01-09T00:04:58.876Z,3.27
2019-01-09T00:07:24.880Z,3.27
2019-01-09T00:09:50.795Z,3.22
2019-01-09T00:12:16.683Z,3.33
2019-01-09T00:14:42.658Z,3.24
2019-01-09T00:17:09.345Z,3.31
2019-01-09T00:19:36.857Z,3.31
2019-01-09T00:22:02.724Z,3.33
2019-01-09T00:24:28.607Z,3.24
2019-01-09T00:26:54.464Z,3.10
2019-01-09T00:29:20.345Z,2.96
2019-01-09T00:31:46.251Z,2.80
2019-01-09T00:34:12.228Z,2.75
2019-01-09T00:36:38.092Z,2.84
2019-01-09T00:39:04.766Z,2.72
2019-01-09T00:41:30.640Z,2.82
2019-01-09T00:43:56.495Z,2.74
2019-01-09T00:46:22.494Z,2.70
2019-01-09T00:48:48.374Z,2.65
2019-01-09T00:51:14.241Z,2.73
2019-01-09T00:53:40.124Z,2.66
2019-01-09T00:56:06.066Z,2.43
2019-01-09T00:58:32.020Z,2.43
2019-01-09T01:00:57.908Z,2.40
2019-01-09T01:03:30.554Z,2.29
2019-01-09T01:06:18.096Z,2.21
2019-01-09T01:08:53.681Z,2.17
2019-01-09T01:11:40.072Z,2.20
2019-01-09T01:14:15.576Z,2.23
2019-01-09T01:17:00.547Z,1.94
2019-01-09T01:19:33.277Z,1.97
2019-01-09T01:22:03.439Z,1.98
2019-01-09T01:24:38.737Z,1.85
2019-01-09T01:27:11.204Z,1.73
2019-01-09T01:29:53.211Z,1.52
2019-01-09T01:32:55.068Z,1.58
2019-01-09T01:35:36.708Z,1.87
2019-01-09T01:38:23.287Z,1.90
2019-01-09T01:40:56.080Z,1.94
2019-01-09T01:43:25.772Z,1.88
2019-01-09T01:46:13.673Z,2.20
2019-01-09T01:49:11.022Z,2.07
2019-01-09T01:51:49.834Z,1.98
2019-01-09T01:54:37.834Z,2.16
2019-01-09T01:57:25.306Z,1.86
2019-01-09T02:00:18.231Z,1.87
2019-01-09T02:02:59.881Z,2.00
2019-01-09T02:05:29.555Z,1.82
2019-01-09T02:08:20.573Z,1.55
2019-01-09T02:11:19.598Z,1.29
2019-01-09T02:14:10.447Z,1.16
2019-01-09T02:16:52.291Z,0.99
2019-01-09T02:19:24.828Z,1.02
2019-01-09T02:22:26.882Z,1.04
2019-01-09T02:25:11.695Z,1.12
2019-01-09T02:27:56.086Z,0.93
2019-01-09T02:30:37.772Z,1.01
2019-01-09T02:33:03.662Z,0.87
2019-01-09T02:35:29.552Z,0.74
2019-01-09T02:37:55.404Z,0.64
2019-01-09T02:40:21.293Z,0.58
2019-01-09T02:42:47.176Z,0.67
2019-01-09T02:45:13.033Z,0.59
2019-01-09T02:47:38.972Z,0.53
2019-01-09T02:50:04.860Z,0.46
2019-01-09T02:52:30.832Z,0.53
2019-01-09T02:54:56.794Z,0.68
2019-01-09T02:57:24.606Z,0.63
2019-01-09T02:59:50.482Z,0.69
2019-01-09T03:02:16.343Z,0.70
2019-01-09T03:04:42.231Z,0.60
2019-01-09T03:07:08.119Z,0.57
2019-01-09T03:09:36.123Z,0.41
2019-01-09T03:12:02.089Z,0.41
2019-01-09T03:14:28.070Z,0.58
2019-01-09T03:16:54.006Z,0.67
2019-01-09T03:19:19.860Z,0.50
2019-01-09T03:21:45.746Z,0.24
2019-01-09T03:24:11.834Z,0.06
2019-01-09T03:26:38.226Z,-0.09
2019-01-09T03:29:04.123Z,0.13
2019-01-09T03:31:30.020Z,0.16
2019-01-09T03:33:55.893Z,0.47
2019-01-09T03:36:21.762Z,0.34
2019-01-09T03:38:47.681Z,0.62
2019-01-09T03:41:13.567Z,0.33
2019-01-09T03:43:39.442Z,0.06
2019-01-09T03:46:05.348Z,-0.21
2019-01-09T03:48:31.338Z,-0.25
2019-01-09T03:50:57.260Z,0.23
2019-01-09T03:53:23.157Z,0.17
2019-01-09T03:55:49.051Z,-0.12
2019-01-09T03:58:14.958Z,-0.03
2019-01-09T04:00:40.862Z,0.23
2019-01-09T04:03:06.725Z,0.18
2019-01-09T04:05:32.634Z,0.21
2019-01-09T04:07:58.531Z,0.10
2019-01-09T04:10:24.407Z,-0.33
2019-01-09T04:12:50.279Z,0.04
2019-01-09T04:15:16.163Z,0.24
2019-01-09T04:17:42.116Z,0.28
2019-01-09T04:20:08.022Z,0.16
2019-01-09T04:22:34.150Z,-0.05
2019-01-09T04:25:00.590Z,-0.44
2019-01-09T04:27:27.196Z,-0.40
2019-01-09T04:29:53.068Z,-0.28
2019-01-09T04:32:18.956Z,-0.31
2019-01-09T04:34:44.841Z,-0.47
2019-01-09T04:37:10.707Z,-0.67
2019-01-09T04:39:36.581Z,-0.70
2019-01-09T04:42:02.450Z,-0.31
2019-01-09T04:44:28.450Z,-0.67
2019-01-09T04:46:54.379Z,-0.46
2019-01-09T04:49:20.414Z,-0.52
2019-01-09T04:51:46.404Z,-0.75
2019-01-09T04:54:12.339Z,-0.51
2019-01-09T04:56:38.185Z,-0.44
2019-01-09T04:59:04.061Z,-0.67
2019-01-09T05:01:30.056Z,-0.54
2019-01-09T05:03:55.927Z,-0.82
2019-01-09T05:06:21.807Z,-1.07
2019-01-09T05:08:47.687Z,-0.88
2019-01-09T05:11:13.562Z,-0.70
2019-01-09T05:13:39.436Z,-0.67
2019-01-09T05:16:05.414Z,-0.89
2019-01-09T05:18:31.295Z,-1.04
2019-01-09T05:20:57.167Z,-0.85
2019-01-09T05:23:23.141Z,-0.76
2019-01-09T05:25:49.626Z,-0.70
2019-01-09T05:28:15.923Z,-0.97
2019-01-09T05:30:41.807Z,-1.08
2019-01-09T05:33:07.759Z,-1.10
2019-01-09T05:35:33.826Z,-0.65
2019-01-09T05:37:59.721Z,-0.95
2019-01-09T05:40:25.567Z,-1.08
2019-01-09T05:42:51.428Z,-1.35
2019-01-09T05:45:17.418Z,-1.43
2019-01-09T05:47:43.324Z,-1.50
2019-01-09T05:50:09.206Z,-1.49
2019-01-09T05:52:35.116Z,-1.54
2019-01-09T05:55:00.963Z,-1.43
2019-01-09T05:57:26.831Z,-1.12
2019-01-09T05:59:52.775Z,-1.51
2019-01-09T06:02:18.879Z,-1.51
2019-01-09T06:04:45.209Z,-1.69
2019-01-09T06:07:18.322Z,-1.55
2019-01-09T06:09:38.930Z,-1.60
2019-01-09T06:12:04.839Z,-1.67
2019-01-09T06:14:30.758Z,-1.60
2019-01-09T06:16:56.614Z,-1.64
2019-01-09T06:19:22.499Z,-1.64
2019-01-09T06:21:49.751Z,-1.44
2019-01-09T06:24:15.619Z,-1.68
2019-01-09T06:26:42.105Z,-1.67
2019-01-09T06:29:08.544Z,-1.73
2019-01-09T06:31:34.412Z,-1.75
2019-01-09T06:34:00.285Z,-1.84
2019-01-09T06:36:26.170Z,-1.11
2019-01-09T06:38:53.721Z,-1.46
2019-01-09T06:41:19.582Z,-1.39
2019-01-09T06:43:45.461Z,-1.42
2019-01-09T06:46:11.413Z,-1.47
2019-01-09T06:48:37.301Z,-1.32
2019-01-09T06:51:03.266Z,-1.46
2019-01-09T06:53:29.263Z,-1.04
2019-01-09T06:55:55.158Z,-1.03
2019-01-09T06:58:20.968Z,-1.15
2019-01-09T07:00:46.896Z,-0.82
2019-01-09T07:03:12.767Z,-1.03
2019-01-09T07:05:38.736Z,-1.14
2019-01-09T07:08:04.600Z,-0.96
2019-01-09T07:10:30.516Z,-1.08
2019-01-09T07:12:56.377Z,-0.81
2019-01-09T07:15:22.252Z,-0.56
2019-01-09T07:17:48.181Z,-0.70
2019-01-09T07:20:14.087Z,-0.88
2019-01-09T07:22:39.988Z,-0.73
2019-01-09T07:25:05.868Z,-0.56
2019-01-09T07:27:32.136Z,-0.68
2019-01-09T07:29:58.504Z,-0.61
2019-01-09T07:32:24.418Z,0.36
2019-01-09T07:34:50.268Z,0.65
2019-01-09T07:37:16.152Z,0.23
2019-01-09T07:39:42.459Z,-0.30
2019-01-09T07:42:08.331Z,-0.33
2019-01-09T07:44:34.334Z,0.05
2019-01-09T07:47:00.301Z,-0.95
2019-01-09T07:49:26.221Z,-1.31
2019-01-09T07:51:52.350Z,-1.06
2019-01-09T07:54:18.217Z,-1.21
2019-01-09T07:56:44.093Z,-1.28
2019-01-09T07:59:10.073Z,-1.54
2019-01-09T08:01:35.970Z,-1.12
2019-01-09T08:04:01.830Z,-1.12
2019-01-09T08:06:27.709Z,-0.77
2019-01-09T08:08:53.578Z,-0.36
2019-01-09T08:11:19.446Z,-0.22
2019-01-09T08:13:45.313Z,-0.73
2019-01-09T08:16:11.306Z,-0.42
2019-01-09T08:18:37.225Z,-0.47
2019-01-09T08:21:05.383Z,-0.67
2019-01-09T08:23:30.900Z,-0.57
2019-01-09T08:25:57.674Z,-0.42
2019-01-09T08:28:23.640Z,-0.24
2019-01-09T08:30:50.934Z,-0.11
2019-01-09T08:33:16.813Z,-0.05
2019-01-09T08:35:42.686Z,0.21
2019-01-09T08:38:08.556Z,0.68
2019-01-09T08:40:34.438Z,0.72
2019-01-09T08:43:00.520Z,0.87
2019-01-09T08:45:26.432Z,0.85
2019-01-09T08:47:52.339Z,1.04
2019-01-09T08:50:18.226Z,1.05
2019-01-09T08:52:44.128Z,1.10
2019-01-09T08:55:10.027Z,1.17
2019-01-09T08:57:35.923Z,1.10
2019-01-09T09:00:05.756Z,1.13
2019-01-09T09:02:31.633Z,1.74
2019-01-09T09:04:57.504Z,1.64
2019-01-09T09:07:23.506Z,1.69
2019-01-09T09:09:49.376Z,1.83
2019-01-09T09:12:15.229Z,2.31
2019-01-09T09:14:41.116Z,2.49
2019-01-09T09:17:06.992Z,2.78
2019-01-09T09:19:32.883Z,3.02
2019-01-09T09:21:58.778Z,3.36
2019-01-09T09:24:24.646Z,3.30
2019-01-09T09:26:50.503Z,3.47
2019-01-09T09:29:16.802Z,3.87
2019-01-09T09:31:43.281Z,4.33
2019-01-09T09:34:09.161Z,4.33
2019-01-09T09:36:35.072Z,4.52
2019-01-09T09:39:00.966Z,4.83
2019-01-09T09:41:27.055Z,4.98
2019-01-09T09:43:52.936Z,4.94
2019-01-09T09:46:18.817Z,5.00
2019-01-09T09:48:44.674Z,5.19
2019-01-09T09:51:10.597Z,5.17
2019-01-09T09:53:36.801Z,5.56
2019-01-09T09:56:02.673Z,5.80
2019-01-09T09:58:28.536Z,5.91
2019-01-09T10:00:54.436Z,6.15
2019-01-09T10:03:20.313Z,6.40
2019-01-09T10:05:46.188Z,6.60
2019-01-09T10:08:12.039Z,6.62
2019-01-09T10:10:39.266Z,6.58
2019-01-09T10:13:05.327Z,6.81
2019-01-09T10:15:31.302Z,5.01
2019-01-09T10:17:57.202Z,4.77
2019-01-09T10:20:23.469Z,5.06
2019-01-09T10:22:49.333Z,5.09
2019-01-09T10:25:15.325Z,4.94
2019-01-09T10:27:41.209Z,4.59
2019-01-09T10:30:13.962Z,4.56
2019-01-09T10:32:40.418Z,4.43
2019-01-09T10:35:06.380Z,4.33
2019-01-09T10:37:32.253Z,4.33
2019-01-09T10:39:58.130Z,4.35
2019-01-09T10:42:24.024Z,4.57
2019-01-09T10:44:50.331Z,5.40
2019-01-09T10:47:16.213Z,6.53
2019-01-09T10:49:42.432Z,6.43
2019-01-09T10:52:08.339Z,7.25
2019-01-09T10:54:35.164Z,7.71
2019-01-09T10:57:01.021Z,8.53
2019-01-09T10:59:26.950Z,8.88
2019-01-09T11:01:52.854Z,8.90
2019-01-09T11:04:18.718Z,8.99
2019-01-09T11:06:46.576Z,9.17
2019-01-09T11:09:12.429Z,9.29
2019-01-09T11:11:38.419Z,9.08
2019-01-09T11:14:04.371Z,9.04
2019-01-09T11:16:30.231Z,8.95
2019-01-09T11:18:56.136Z,8.98
2019-01-09T11:21:22.387Z,9.18
2019-01-09T11:23:48.261Z,9.42
2019-01-09T11:26:15.274Z,9.54
2019-01-09T11:28:41.226Z,9.60
2019-01-09T11:31:07.636Z,9.99
2019-01-09T11:33:34.113Z,9.99
2019-01-09T11:35:59.979Z,9.85
2019-01-09T11:38:27.487Z,10.17
2019-01-09T11:40:53.399Z,10.26
2019-01-09T11:43:19.270Z,10.37
2019-01-09T11:45:45.157Z,10.34
2019-01-09T11:48:11.030Z,10.49
2019-01-09T11:50:36.908Z,10.43
2019-01-09T11:53:02.799Z,10.55
2019-01-09T11:55:28.707Z,10.62
2019-01-09T11:57:54.876Z,10.77
2019-01-09T12:00:22.845Z,10.97
2019-01-09T12:02:48.850Z,11.10
2019-01-09T12:05:14.776Z,11.11
2019-01-09T12:07:40.722Z,11.14
2019-01-09T12:10:10.103Z,11.08
2019-01-09T12:12:36.021Z,11.08
2019-01-09T12:15:03.013Z,11.06
2019-01-09T12:17:29.697Z,11.17
2019-01-09T12:19:55.586Z,11.24
2019-01-09T12:22:21.608Z,11.13
2019-01-09T12:24:47.496Z,11.03
2019-01-09T12:27:13.402Z,10.93
2019-01-09T12:29:39.308Z,10.84
2019-01-09T12:32:05.602Z,10.82
2019-01-09T12:34:32.074Z,10.80
2019-01-09T12:36:57.918Z,10.76
2019-01-09T12:39:23.887Z,10.76
2019-01-09T12:41:49.783Z,10.80
2019-01-09T12:44:15.683Z,10.71
2019-01-09T12:46:41.562Z,10.68
2019-01-09T12:49:07.453Z,10.52
2019-01-09T12:51:33.335Z,10.36
2019-01-09T12:53:59.214Z,10.25
2019-01-09T12:56:25.108Z,10.18
2019-01-09T12:58:51.001Z,10.08
2019-01-09T13:01:16.856Z,9.92
2019-01-09T13:03:44.639Z,9.91
2019-01-09T13:06:10.618Z,9.82
2019-01-09T13:08:36.524Z,9.85
2019-01-09T13:11:02.370Z,9.90
2019-01-09T13:13:28.256Z,10.47
2019-01-09T13:15:54.144Z,10.57
2019-01-09T13:18:20.025Z,10.29
2019-01-09T13:20:45.884Z,11.13
2019-01-09T13:23:11.763Z,11.53
2019-01-09T13:25:37.620Z,11.52
2019-01-09T13:28:03.775Z,10.67
2019-01-09T13:30:29.699Z,10.82
2019-01-09T13:32:55.649Z,11.00
2019-01-09T13:35:21.909Z,11.29
2019-01-09T13:37:47.799Z,10.20
2019-01-09T13:40:17.972Z,10.02
2019-01-09T13:42:45.766Z,9.96
2019-01-09T13:45:13.962Z,10.04
2019-01-09T13:47:39.848Z,10.14
2019-01-09T13:50:09.057Z,10.08
2019-01-09T13:52:34.917Z,10.09
2019-01-09T13:55:01.556Z,10.15
2019-01-09T13:57:27.436Z,10.26
2019-01-09T13:59:53.315Z,10.57
2019-01-09T14:02:19.194Z,10.46
2019-01-09T14:04:45.086Z,10.53
2019-01-09T14:07:10.946Z,10.37
2019-01-09T14:09:39.554Z,10.52
2019-01-09T14:12:04.936Z,10.54
2019-01-09T14:14:30.815Z,10.76
2019-01-09T14:16:56.676Z,11.12
2019-01-09T14:19:22.556Z,11.48
2019-01-09T14:21:48.435Z,11.31
2019-01-09T14:24:14.295Z,11.16
2019-01-09T14:26:40.172Z,10.76
2019-01-09T14:29:06.052Z,10.73
2019-01-09T14:31:31.922Z,10.98
2019-01-09T14:33:58.281Z,10.93
2019-01-09T14:36:25.040Z,10.94
2019-01-09T14:38:51.022Z,10.82
2019-01-09T14:41:16.912Z,10.88
2019-01-09T14:43:42.768Z,10.87
2019-01-09T14:46:08.661Z,10.79
2019-01-09T14:48:34.792Z,10.74
2019-01-09T14:51:00.669Z,10.74
2019-01-09T14:53:28.452Z,10.67
2019-01-09T14:55:54.348Z,10.64
2019-01-09T14:58:20.213Z,10.64
2019-01-09T15:00:46.075Z,10.47
2019-01-09T15:03:11.945Z,10.40
2019-01-09T15:05:37.832Z,10.57
2019-01-09T15:08:03.731Z,10.43
2019-01-09T15:10:31.466Z,10.20
2019-01-09T15:12:57.473Z,10.03
2019-01-09T15:15:24.545Z,10.22
2019-01-09T15:17:50.422Z,10.08
2019-01-09T15:20:18.790Z,9.98
2019-01-09T15:22:44.984Z,9.82
2019-01-09T15:25:12.171Z,10.12
2019-01-09T15:27:38.033Z,10.15
2019-01-09T15:30:13.688Z,9.94
2019-01-09T15:32:39.582Z,9.87
2019-01-09T15:35:08.623Z,9.92
2019-01-09T15:37:34.850Z,9.77
2019-01-09T15:40:05.528Z,9.72
2019-01-09T15:42:28.478Z,9.64
2019-01-09T15:44:54.472Z,9.23
2019-01-09T15:47:20.452Z,9.41
2019-01-09T15:49:46.411Z,9.31
2019-01-09T15:52:12.267Z,9.29
2019-01-09T15:54:38.158Z,9.17
2019-01-09T15:57:04.042Z,9.08
2019-01-09T15:59:29.927Z,9.35
2019-01-09T16:01:58.163Z,9.14
2019-01-09T16:04:24.111Z,9.47
2019-01-09T16:06:49.999Z,9.12
2019-01-09T16:09:15.885Z,9.06
2019-01-09T16:11:41.762Z,8.91
2019-01-09T16:14:09.525Z,9.17
2019-01-09T16:16:35.509Z,9.06
2019-01-09T16:19:01.452Z,8.86
2019-01-09T16:21:27.302Z,9.22
2019-01-09T16:23:53.183Z,9.02
2019-01-09T16:26:19.066Z,9.07
2019-01-09T16:28:44.938Z,8.89
2019-01-09T16:31:13.531Z,8.72
2019-01-09T16:33:39.374Z,9.04
2019-01-09T16:36:05.383Z,9.23
2019-01-09T16:38:31.514Z,9.25
2019-01-09T16:40:57.634Z,9.11
2019-01-09T16:43:23.877Z,9.05
2019-01-09T16:45:49.832Z,8.85
2019-01-09T16:48:15.703Z,9.17
2019-01-09T16:50:41.673Z,9.00
2019-01-09T16:53:07.587Z,8.88
2019-01-09T16:55:33.569Z,9.00
2019-01-09T16:57:59.663Z,9.09
2019-01-09T17:00:32.094Z,8.98
2019-01-09T17:02:59.878Z,8.86
2019-01-09T17:05:26.052Z,9.19
2019-01-09T17:07:52.706Z,9.17
2019-01-09T17:10:18.579Z,9.07
2019-01-09T17:12:44.456Z,9.01
2019-01-09T17:15:13.897Z,8.97
2019-01-09T17:17:39.775Z,8.86
2019-01-09T17:20:09.219Z,8.82
2019-01-09T17:22:35.101Z,8.73
2019-01-09T17:25:01.028Z,8.98
2019-01-09T17:27:26.899Z,8.73
2019-01-09T17:29:55.229Z,8.53
2019-01-09T17:32:21.810Z,8.51
2019-01-09T17:34:47.797Z,8.33
2019-01-09T17:37:14.181Z,8.65
2019-01-09T17:39:40.387Z,8.52
2019-01-09T17:42:06.247Z,8.59
2019-01-09T17:44:32.116Z,8.64
2019-01-09T17:46:57.982Z,8.55
2019-01-09T17:49:23.879Z,8.50
2019-01-09T17:51:49.757Z,8.57
2019-01-09T17:54:15.681Z,8.51
2019-01-09T17:56:41.667Z,8.41
2019-01-09T17:59:07.531Z,8.16
2019-01-09T18:01:33.623Z,8.17
2019-01-09T18:03:59.473Z,8.06
2019-01-09T18:06:25.372Z,7.78
2019-01-09T18:08:51.473Z,7.61
2019-01-09T18:11:17.344Z,7.82
2019-01-09T18:13:43.334Z,7.74
2019-01-09T18:16:09.190Z,7.82
2019-01-09T18:18:36.996Z,7.82
2019-01-09T18:21:02.846Z,7.68
2019-01-09T18:23:28.753Z,7.47
2019-01-09T18:25:54.585Z,7.35
2019-01-09T18:28:20.505Z,7.32
2019-01-09T18:30:50.200Z,7.28
2019-01-09T18:33:26.243Z,7.23
2019-01-09T18:36:04.737Z,7.17
2019-01-09T18:38:37.067Z,7.08
2019-01-09T18:41:19.922Z,6.81
2019-01-09T18:43:52.642Z,6.75
2019-01-09T18:46:34.212Z,6.90
2019-01-09T18:49:15.789Z,6.59
2019-01-09T18:52:00.580Z,6.57
2019-01-09T18:54:26.721Z,6.47
2019-01-09T18:56:53.171Z,6.46
2019-01-09T18:59:19.160Z,6.49
2019-01-09T19:01:45.064Z,6.65
2019-01-09T19:04:10.934Z,6.70
2019-01-09T19:06:36.796Z,6.66
2019-01-09T19:09:06.319Z,6.59
2019-01-09T19:11:32.480Z,6.61
2019-01-09T19:13:58.343Z,6.66
2019-01-09T19:16:24.216Z,6.71
2019-01-09T19:18:50.110Z,6.40
2019-01-09T19:21:15.953Z,6.32
2019-01-09T19:23:41.829Z,6.05
2019-01-09T19:26:07.717Z,6.05
2019-01-09T19:28:33.594Z,6.03
2019-01-09T19:30:59.477Z,6.03
2019-01-09T19:33:25.348Z,6.34
2019-01-09T19:35:51.241Z,6.45
2019-01-09T19:38:17.074Z,6.22
2019-01-09T19:40:43.699Z,6.31
2019-01-09T19:43:09.904Z,6.30
2019-01-09T19:45:35.786Z,6.41
2019-01-09T19:48:01.662Z,6.49
2019-01-09T19:50:27.557Z,6.17
2019-01-09T19:52:53.431Z,5.87
2019-01-09T19:55:19.415Z,5.79
2019-01-09T19:57:45.389Z,6.02
2019-01-09T20:00:14.925Z,6.43
2019-01-09T20:02:40.784Z,6.65
2019-01-09T20:05:06.790Z,6.48
2019-01-09T20:07:32.702Z,6.46
2019-01-09T20:09:58.561Z,6.36
2019-01-09T20:12:24.464Z,6.26
2019-01-09T20:14:50.465Z,6.32
2019-01-09T20:17:16.370Z,6.14
2019-01-09T20:19:42.336Z,6.10
2019-01-09T20:22:08.175Z,6.19
2019-01-09T20:24:34.042Z,6.27
2019-01-09T20:26:59.902Z,6.40
2019-01-09T20:29:25.947Z,6.34
2019-01-09T20:31:51.935Z,6.33
2019-01-09T20:34:17.803Z,6.09
2019-01-09T20:36:43.885Z,5.92
2019-01-09T20:39:09.799Z,5.83
2019-01-09T20:41:36.232Z,5.75
2019-01-09T20:44:05.863Z,5.81
2019-01-09T20:46:31.875Z,6.03
2019-01-09T20:48:57.738Z,6.04
2019-01-09T20:51:23.626Z,6.09
2019-01-09T20:53:49.557Z,5.89
2019-01-09T20:56:15.456Z,6.14
2019-01-09T20:58:41.553Z,5.82
2019-01-09T21:01:08.134Z,5.76
2019-01-09T21:03:34.105Z,5.81
2019-01-09T21:05:59.952Z,5.81
2019-01-09T21:08:26.061Z,5.68
2019-01-09T21:10:52.041Z,5.33
2019-01-09T21:13:17.942Z,5.11
2019-01-09T21:15:43.830Z,5.15
2019-01-09T21:18:09.686Z,5.48
2019-01-09T21:20:35.593Z,5.30
2019-01-09T21:23:01.491Z,5.14
2019-01-09T21:25:27.462Z,5.03
2019-01-09T21:27:53.450Z,5.13
2019-01-09T21:30:24.472Z,5.15
2019-01-09T21:32:50.475Z,5.15
2019-01-09T21:35:16.373Z,4.91
2019-01-09T21:37:42.554Z,4.80
2019-01-09T21:40:12.118Z,4.82
2019-01-09T21:42:38.531Z,4.95
2019-01-09T21:45:07.041Z,5.01
2019-01-09T21:47:33.060Z,5.12
2019-01-09T21:49:59.017Z,5.09
2019-01-09T21:52:24.913Z,4.85
2019-01-09T21:54:50.797Z,4.68
2019-01-09T21:57:17.630Z,4.95
2019-01-09T21:59:43.611Z,4.95
2019-01-09T22:02:09.523Z,4.74
2019-01-09T22:04:35.412Z,4.63
2019-01-09T22:07:01.283Z,4.73
2019-01-09T22:09:27.391Z,4.79
2019-01-09T22:12:02.190Z,4.78
2019-01-09T22:14:21.561Z,5.15
2019-01-09T22:16:47.472Z,5.05
2019-01-09T22:19:13.319Z,4.95
2019-01-09T22:21:39.313Z,4.84
2019-01-09T22:24:05.268Z,4.41
2019-01-09T22:26:31.258Z,4.40
2019-01-09T22:28:57.167Z,4.99
2019-01-09T22:31:23.029Z,4.90
2019-01-09T22:33:51.491Z,4.92
2019-01-09T22:36:17.385Z,4.86
2019-01-09T22:38:43.254Z,4.51
2019-01-09T22:41:09.146Z,4.44
2019-01-09T22:43:35.156Z,4.61
2019-01-09T22:46:04.996Z,4.76
2019-01-09T22:48:30.886Z,4.77
2019-01-09T22:50:56.750Z,4.93
2019-01-09T22:53:22.626Z,4.93
2019-01-09T22:55:48.535Z,4.86
2019-01-09T22:58:14.401Z,4.79
2019-01-09T23:00:53.236Z,4.58
2019-01-09T23:03:19.247Z,4.52
2019-01-09T23:05:45.460Z,4.44
2019-01-09T23:08:11.431Z,4.23
2019-01-09T23:10:37.335Z,4.28
2019-01-09T23:13:03.314Z,4.05
2019-01-09T23:15:29.309Z,4.44
2019-01-09T23:17:55.197Z,4.39
2019-01-09T23:20:21.085Z,4.12
2019-01-09T23:22:46.961Z,4.13
2019-01-09T23:25:12.939Z,4.16
2019-01-09T23:27:38.792Z,4.24
2019-01-09T23:30:07.876Z,4.17
2019-01-09T23:32:33.874Z,4.29
2019-01-09T23:34:59.814Z,4.21
2019-01-09T23:37:25.627Z,4.14
2019-01-09T23:39:51.497Z,3.81
2019-01-09T23:42:17.420Z,3.67
2019-01-09T23:44:44.059Z,3.64
2019-01-09T23:47:10.837Z,3.84
2019-01-09T23:49:36.713Z,3.57
2019-01-09T23:52:02.589Z,3.57
2019-01-09T23:54:28.559Z,3.50
2019-01-09T23:56:54.467Z,3.52
2019-01-09T23:59:20.422Z,3.44
